Time;durP1;ratioP1;P1;durP2;ratioP2;P2;SDS_P1;SDS_P2;PMS_P1;PMS_P2;Temp;Humidity;BMP_temperature;BMP_pressure;BME280_temperature;BME280_humidity;BME280_pressure;Samples;Min_cycle;Max_cycle;Signal;HPM_P1;HPM_P2
2021/10/29 00:00:38;;;;;;;48.90;33.47;;;;;;;5.71;100.00;98330.00;10511630;28;20051;-65
2021/10/29 00:05:43;;;;;;;52.83;33.20;;;;;;;5.64;100.00;98318.16;10512445;28;20032;-64
2021/10/29 00:10:46;;;;;;;50.45;33.17;;;;;;;5.62;100.00;98322.78;10512924;28;20043;-65
2021/10/29 00:15:49;;;;;;;47.67;31.13;;;;;;;5.60;100.00;98322.06;10512736;28;20432;-64
2021/10/29 00:20:53;;;;;;;55.25;34.13;;;;;;;5.54;100.00;98310.06;10513310;28;20040;-64
2021/10/29 00:25:57;;;;;;;53.53;34.05;;;;;;;5.55;100.00;98309.97;10518606;28;20032;-65
2021/10/29 00:31:00;;;;;;;53.80;33.95;;;;;;;5.55;100.00;98304.63;10517360;28;20044;-64
2021/10/29 00:36:05;;;;;;;52.55;33.40;;;;;;;5.52;100.00;98315.56;10520067;28;20063;-64
2021/10/29 00:41:08;;;;;;;56.28;34.40;;;;;;;5.50;100.00;98317.50;10516586;28;20059;-64
2021/10/29 00:46:11;;;;;;;52.22;33.20;;;;;;;5.47;100.00;98319.59;10519124;28;20560;-64
2021/10/29 00:51:17;;;;;;;50.42;32.08;;;;;;;5.39;100.00;98312.25;10515047;28;20043;-65
2021/10/29 00:56:20;;;;;;;60.40;35.85;;;;;;;5.34;100.00;98309.97;10517591;28;20722;-65
2021/10/29 01:01:23;;;;;;;56.22;34.90;;;;;;;5.34;100.00;98323.31;10514868;28;20048;-65
2021/10/29 01:06:28;;;;;;;51.83;32.78;;;;;;;5.30;100.00;98316.53;10517136;28;20040;-65
2021/10/29 01:11:32;;;;;;;51.67;33.03;;;;;;;5.25;100.00;98316.94;10515203;28;20162;-65
2021/10/29 01:16:35;;;;;;;57.70;35.17;;;;;;;5.23;100.00;98321.56;10516929;28;20424;-65
2021/10/29 01:21:39;;;;;;;62.95;36.15;;;;;;;5.20;100.00;98316.50;10517459;28;20080;-65
2021/10/29 01:26:43;;;;;;;57.30;35.33;;;;;;;5.25;100.00;98308.09;10514769;28;20040;-65
2021/10/29 01:31:46;;;;;;;56.92;33.97;;;;;;;5.27;100.00;98310.63;10516008;28;20052;-65
2021/10/29 01:36:50;;;;;;;52.28;32.83;;;;;;;5.26;100.00;98309.78;10518037;28;20062;-65
2021/10/29 01:41:54;;;;;;;51.97;32.40;;;;;;;5.28;100.00;98301.63;10517783;28;20042;-65
2021/10/29 01:46:57;;;;;;;52.22;32.25;;;;;;;5.23;100.00;98292.16;10518773;28;20054;-65
2021/10/29 01:52:02;;;;;;;54.30;31.70;;;;;;;5.20;100.00;98292.44;10516373;28;20033;-65
2021/10/29 01:57:06;;;;;;;60.88;33.85;;;;;;;5.17;100.00;98289.19;10515494;28;20052;-65
2021/10/29 02:02:09;;;;;;;59.55;33.50;;;;;;;5.15;100.00;98291.97;10515180;28;20086;-65
2021/10/29 02:07:13;;;;;;;54.92;32.78;;;;;;;5.14;100.00;98274.25;10515530;28;20127;-65
2021/10/29 02:12:16;;;;;;;51.55;31.60;;;;;;;5.13;100.00;98279.75;10516564;28;20139;-65
2021/10/29 02:17:23;;;;;;;48.42;31.17;;;;;;;5.10;100.00;98278.19;10513992;28;20050;-65
2021/10/29 02:22:28;;;;;;;52.40;30.58;;;;;;;5.08;100.00;98278.31;10513907;28;20154;-65
2021/10/29 02:27:31;;;;;;;53.83;31.42;;;;;;;5.05;100.00;98265.22;10511676;28;20139;-65
2021/10/29 02:32:34;;;;;;;50.35;31.13;;;;;;;5.04;100.00;98271.53;10516006;28;21084;-65
2021/10/29 02:37:38;;;;;;;53.25;31.85;;;;;;;5.01;100.00;98260.25;10512980;28;20056;-65
2021/10/29 02:42:41;;;;;;;42.33;27.80;;;;;;;5.00;100.00;98250.59;10513820;28;20131;-65
2021/10/29 02:47:47;;;;;;;43.83;27.80;;;;;;;4.99;100.00;98251.56;10512930;28;20494;-65
2021/10/29 02:52:51;;;;;;;44.88;28.52;;;;;;;4.94;100.00;98258.13;10518414;28;20486;-65
2021/10/29 02:57:54;;;;;;;46.45;28.92;;;;;;;4.92;100.00;98254.72;10509421;28;20039;-65
2021/10/29 03:02:58;;;;;;;47.60;28.20;;;;;;;4.88;100.00;98250.63;10510981;28;20032;-65
2021/10/29 03:08:02;;;;;;;39.83;26.30;;;;;;;4.86;100.00;98247.25;10511814;28;20036;-65
2021/10/29 03:13:09;;;;;;;41.17;27.58;;;;;;;4.84;100.00;98249.19;10513576;28;20051;-65
2021/10/29 03:18:13;;;;;;;43.22;27.88;;;;;;;4.84;100.00;98253.66;10515055;27;20164;-65
2021/10/29 03:23:19;;;;;;;43.50;27.00;;;;;;;4.81;100.00;98256.63;10531891;27;20059;-65
2021/10/29 03:28:22;;;;;;;43.80;27.65;;;;;;;4.76;100.00;98257.00;10512454;28;20032;-65
2021/10/29 03:33:26;;;;;;;44.35;27.77;;;;;;;4.76;100.00;98254.34;10511724;28;20046;-65
2021/10/29 03:43:52;;;;;;;42.63;27.20;;;;;;;4.66;100.00;98253.38;10509029;28;20048;-65
2021/10/29 03:49:01;;;;;;;44.42;28.48;;;;;;;4.63;100.00;98234.03;10512011;28;20059;-64
2021/10/29 03:54:09;;;;;;;48.83;29.80;;;;;;;4.56;100.00;98238.16;10511781;28;20044;-65
2021/10/29 03:59:12;;;;;;;40.90;27.10;;;;;;;4.48;100.00;98236.13;10517738;28;20040;-65
2021/10/29 04:04:15;;;;;;;48.92;30.52;;;;;;;4.40;100.00;98240.41;10512694;28;20152;-65
2021/10/29 04:09:19;;;;;;;46.25;29.77;;;;;;;4.39;100.00;98233.38;10516029;28;20052;-65
2021/10/29 04:14:27;;;;;;;47.58;30.27;;;;;;;4.37;100.00;98243.34;10517391;28;20402;-65
2021/10/29 04:19:31;;;;;;;49.38;29.35;;;;;;;4.35;100.00;98246.09;10519373;28;20044;-65
2021/10/29 04:24:35;;;;;;;46.22;28.55;;;;;;;4.35;100.00;98253.28;10519920;28;20119;-66
2021/10/29 04:29:39;;;;;;;42.25;27.95;;;;;;;4.32;100.00;98244.53;10519700;28;20067;-66
2021/10/29 04:34:43;;;;;;;44.15;27.83;;;;;;;4.33;100.00;98242.75;10518822;28;20566;-65
2021/10/29 04:39:48;;;;;;;40.95;26.48;;;;;;;4.30;100.00;98238.47;10517830;28;20164;-66
2021/10/29 04:44:51;;;;;;;39.75;25.58;;;;;;;4.27;100.00;98249.44;10516960;28;20054;-65
2021/10/29 04:49:54;;;;;;;46.13;27.15;;;;;;;4.27;100.00;98246.75;10516500;28;20036;-66
2021/10/29 04:54:58;;;;;;;39.78;26.38;;;;;;;4.26;100.00;98241.53;10516585;28;20130;-65
2021/10/29 05:00:04;;;;;;;43.47;26.48;;;;;;;4.25;100.00;98221.16;10515048;28;20127;-65
2021/10/29 05:05:09;;;;;;;38.25;24.55;;;;;;;4.24;100.00;98225.66;10517009;28;20138;-66
2021/10/29 05:10:13;;;;;;;41.70;25.85;;;;;;;4.25;100.00;98230.03;10516808;28;20151;-65
2021/10/29 05:15:17;;;;;;;41.25;25.58;;;;;;;4.26;100.00;98229.06;10514273;28;20047;-65
2021/10/29 05:20:20;;;;;;;39.17;24.95;;;;;;;4.26;100.00;98221.06;10516060;28;20040;-65
2021/10/29 05:25:25;;;;;;;40.03;26.55;;;;;;;4.23;100.00;98213.31;10515462;28;20039;-65
2021/10/29 05:30:28;;;;;;;37.58;24.27;;;;;;;4.24;100.00;98217.66;10514812;28;20066;-65
2021/10/29 05:35:31;;;;;;;41.05;24.63;;;;;;;4.24;100.00;98217.66;10514046;28;20062;-65
2021/10/29 05:40:36;;;;;;;37.13;23.60;;;;;;;4.27;100.00;98228.09;10514657;28;20055;-65
2021/10/29 05:45:39;;;;;;;35.10;23.13;;;;;;;4.27;100.00;98232.56;10514967;28;20121;-65
2021/10/29 05:50:48;;;;;;;40.35;25.30;;;;;;;4.27;100.00;98225.41;10511789;28;20052;-66
2021/10/29 05:55:52;;;;;;;39.35;24.75;;;;;;;4.25;100.00;98224.69;10511745;28;20119;-66
2021/10/29 06:00:55;;;;;;;36.47;23.77;;;;;;;4.24;100.00;98224.81;10511941;28;20511;-67
2021/10/29 06:05:59;;;;;;;40.45;26.40;;;;;;;4.22;100.00;98234.78;10512151;28;20047;-67
2021/10/29 06:11:05;;;;;;;38.28;25.33;;;;;;;4.23;100.00;98225.81;10515381;28;20052;-67
2021/10/29 06:16:09;;;;;;;41.50;26.35;;;;;;;4.21;100.00;98222.41;10514341;28;20063;-66
2021/10/29 06:21:15;;;;;;;39.80;24.27;;;;;;;4.16;100.00;98218.28;10512198;28;20882;-67
2021/10/29 06:26:23;;;;;;;43.53;26.25;;;;;;;4.19;100.00;98219.03;10511481;28;20066;-67
2021/10/29 06:31:26;;;;;;;36.13;24.88;;;;;;;4.19;100.00;98211.03;10510987;28;20044;-67
2021/10/29 06:36:29;;;;;;;39.08;25.92;;;;;;;4.24;100.00;98211.47;10512812;28;20043;-66
2021/10/29 06:41:34;;;;;;;38.47;25.40;;;;;;;4.28;100.00;98213.78;10513026;28;20541;-67
2021/10/29 06:46:45;;;;;;;36.92;23.05;;;;;;;4.33;100.00;98216.06;10512182;28;20039;-67
2021/10/29 07:03:04;;;;;;;31.42;22.33;;;;;;;4.50;100.00;98212.00;10471887;28;20129;-65
2021/10/29 07:40:15;;;;;;;29.08;20.15;;;;;;;5.21;100.00;98226.50;10511388;28;20389;-66
2021/10/29 07:45:22;;;;;;;27.38;19.23;;;;;;;5.29;100.00;98239.22;10508733;28;20647;-65
2021/10/29 07:50:26;;;;;;;30.83;20.73;;;;;;;5.37;100.00;98247.41;10510596;28;20059;-62
2021/10/29 07:55:31;;;;;;;29.33;20.60;;;;;;;5.52;100.00;98242.59;10511517;28;20505;-62
2021/10/29 08:00:36;;;;;;;28.55;19.42;;;;;;;5.64;100.00;98232.63;10508065;28;20137;-63
2021/10/29 08:05:39;;;;;;;27.08;19.65;;;;;;;5.75;100.00;98219.16;10512597;28;20044;-63
2021/10/29 08:10:42;;;;;;;30.80;19.92;;;;;;;5.89;100.00;98227.78;10509812;28;20039;-63
2021/10/29 08:15:47;;;;;;;30.63;20.23;;;;;;;6.03;100.00;98230.13;10510949;28;20123;-62
2021/10/29 08:20:50;;;;;;;28.20;19.23;;;;;;;6.26;100.00;98229.88;10507671;28;20489;-62
2021/10/29 08:25:53;;;;;;;26.35;19.40;;;;;;;6.40;100.00;98224.13;10511867;28;20086;-67
2021/10/29 08:30:58;;;;;;;27.13;18.70;;;;;;;6.55;100.00;98215.66;10530767;27;20052;-67
2021/10/29 08:36:05;;;;;;;26.63;17.67;;;;;;;6.73;100.00;98219.34;10507765;28;20048;-68
2021/10/29 08:41:08;;;;;;;27.70;18.23;;;;;;;6.91;100.00;98207.88;10509848;28;20125;-67
2021/10/29 08:46:13;;;;;;;25.35;17.30;;;;;;;7.04;100.00;98197.72;10519763;28;20036;-68
2021/10/29 08:51:16;;;;;;;26.08;16.65;;;;;;;7.24;100.00;98200.34;10518590;28;20048;-68
2021/10/29 08:56:19;;;;;;;24.85;16.42;;;;;;;7.39;100.00;98180.13;10517603;28;20360;-67
2021/10/29 09:01:24;;;;;;;23.23;15.95;;;;;;;7.61;100.00;98167.34;10518637;28;20306;-68
2021/10/29 09:06:38;;;;;;;20.60;14.10;;;;;;;7.81;100.00;98167.25;10518404;28;20130;-68
2021/10/29 09:11:59;;;;;;;20.70;14.75;;;;;;;8.12;100.00;98157.00;10516890;28;20051;-68
2021/10/29 09:17:37;;;;;;;19.73;13.73;;;;;;;8.42;100.00;98149.59;10514500;28;20503;-68
2021/10/29 09:33:53;;;;;;;16.35;11.60;;;;;;;9.15;100.00;98130.66;10514084;28;20040;-68
2021/10/29 09:39:03;;;;;;;16.48;11.90;;;;;;;9.33;100.00;98119.84;10516994;28;20161;-68
2021/10/29 09:44:38;;;;;;;15.13;11.57;;;;;;;9.52;100.00;98122.25;10514669;28;20089;-69
2021/10/29 09:49:52;;;;;;;16.20;10.60;;;;;;;9.75;100.00;98116.28;10512801;28;20154;-68
2021/10/29 09:55:00;;;;;;;16.13;11.38;;;;;;;9.95;100.00;98118.69;10514719;28;20488;-68
2021/10/29 10:00:06;;;;;;;16.45;10.77;;;;;;;10.13;100.00;98113.16;10515630;28;20136;-62
2021/10/29 10:05:17;;;;;;;13.50;10.25;;;;;;;10.33;100.00;98108.31;10516770;28;20483;-64
2021/10/29 10:10:21;;;;;;;13.85;9.55;;;;;;;10.44;100.00;98093.72;10515481;28;20047;-64
2021/10/29 10:15:24;;;;;;;15.63;10.45;;;;;;;10.59;100.00;98096.56;10515155;28;20040;-64
2021/10/29 10:20:29;;;;;;;16.65;10.43;;;;;;;10.75;100.00;98091.16;10514833;28;20044;-64
2021/10/29 10:25:47;;;;;;;14.98;9.60;;;;;;;10.89;100.00;98084.22;10508678;28;20280;-64
2021/10/29 10:31:05;;;;;;;14.75;9.38;;;;;;;11.12;100.00;98080.81;10512903;28;20402;-64
2021/10/29 10:42:16;;;;;;;13.27;8.10;;;;;;;11.65;100.00;98086.50;10512446;28;20128;-64
2021/10/29 10:47:23;;;;;;;14.32;7.18;;;;;;;11.82;100.00;98080.97;10512134;28;20046;-64
2021/10/29 10:52:30;;;;;;;11.63;6.20;;;;;;;12.08;100.00;98075.31;10511517;28;20048;-63
2021/10/29 10:57:42;;;;;;;11.95;6.13;;;;;;;12.23;100.00;98075.34;10512300;28;20051;-64
2021/10/29 11:13:50;;;;;;;9.40;5.07;;;;;;;12.95;100.00;98054.25;10540438;27;20145;-63
2021/10/29 11:18:55;;;;;;;11.82;5.30;;;;;;;13.08;100.00;98050.91;10507750;28;20418;-63
2021/10/29 11:24:01;;;;;;;8.25;5.28;;;;;;;13.25;100.00;98048.84;10510112;28;20048;-63
2021/10/29 11:29:05;;;;;;;7.65;4.88;;;;;;;13.37;100.00;98044.66;10514103;28;20139;-64
2021/10/29 11:34:16;;;;;;;8.48;4.22;;;;;;;13.56;100.00;98034.28;10511676;28;20142;-64
2021/10/29 11:39:22;;;;;;;5.88;4.25;;;;;;;13.71;95.45;98026.97;10511213;28;20050;-63
2021/10/29 11:44:26;;;;;;;5.90;3.90;;;;;;;13.84;100.00;98015.44;10510383;28;20036;-63
2021/10/29 11:49:30;;;;;;;5.80;3.90;;;;;;;13.98;100.00;98011.00;10526576;27;20170;-64
2021/10/29 11:54:36;;;;;;;7.55;4.07;;;;;;;14.11;98.79;98009.44;10512830;28;20478;-64
2021/10/29 12:00:07;;;;;;;7.30;4.50;;;;;;;14.22;92.71;97995.38;10514206;28;20133;-64
2021/10/29 12:10:39;;;;;;;6.43;3.97;;;;;;;14.59;88.88;97978.97;10509310;28;20162;-64
2021/10/29 12:15:43;;;;;;;8.90;5.07;;;;;;;14.69;93.32;97965.94;10514228;28;20115;-62
2021/10/29 12:20:48;;;;;;;8.23;4.30;;;;;;;14.78;89.47;97959.31;10519555;28;20051;-64
2021/10/29 12:26:03;;;;;;;6.07;3.40;;;;;;;15.05;86.43;97945.06;10518591;28;20047;-64
2021/10/29 12:31:12;;;;;;;4.90;3.60;;;;;;;15.32;88.01;97940.56;10544407;27;20056;-64
2021/10/29 12:53:25;;;;;;;6.15;3.58;;;;;;;16.15;77.67;97922.34;10516113;28;20496;-66
2021/10/29 13:03:55;;;;;;;5.18;3.53;;;;;;;16.54;71.84;97917.88;10514240;28;20085;-64
2021/10/29 13:09:00;;;;;;;5.68;3.53;;;;;;;16.76;74.17;97906.72;10515323;28;20032;-64
2021/10/29 13:14:07;;;;;;;4.32;3.08;;;;;;;16.77;69.92;97900.25;10514902;28;20050;-66
2021/10/29 13:19:25;;;;;;;4.15;3.30;;;;;;;17.09;70.00;97889.50;10511589;28;20489;-67
2021/10/29 13:25:02;;;;;;;5.47;3.67;;;;;;;17.23;67.39;97893.78;10519646;28;20044;-67
2021/10/29 13:51:33;;;;;;;5.43;3.85;;;;;;;17.85;70.79;97865.94;10511323;28;19923;-64
2021/10/29 13:56:52;;;;;;;6.25;3.92;;;;;;;17.93;68.34;97881.19;10511461;28;20040;-64
2021/10/29 14:02:17;;;;;;;6.82;3.88;;;;;;;18.07;67.08;97879.22;10514039;28;20064;-64
2021/10/29 14:29:05;;;;;;;9.82;4.18;;;;;;;18.25;64.53;97885.78;10511493;28;20371;-69
2021/10/29 14:34:14;;;;;;;6.35;4.38;;;;;;;18.09;62.48;97879.00;10512279;28;20044;-64
2021/10/29 14:39:23;;;;;;;5.47;4.38;;;;;;;18.04;63.04;97878.81;10508769;28;20139;-64
2021/10/29 14:44:36;;;;;;;5.60;4.20;;;;;;;17.84;66.97;97875.19;10510316;28;20402;-65
2021/10/29 14:49:55;;;;;;;5.65;4.35;;;;;;;17.70;69.94;97868.16;10506857;28;20052;-64
2021/10/29 15:06:11;;;;;;;5.18;4.40;;;;;;;16.96;73.11;97868.59;10506971;28;20081;-64
2021/10/29 15:17:01;;;;;;;7.95;4.82;;;;;;;16.18;76.86;97862.09;10506717;28;20048;-64
2021/10/29 15:27:39;;;;;;;9.20;5.30;;;;;;;15.39;82.80;97843.69;10508271;28;20238;-64
2021/10/29 15:48:51;;;;;;;13.02;9.98;;;;;;;13.96;100.00;97858.69;10504651;28;20488;-64
2021/10/29 15:53:56;;;;;;;13.27;11.13;;;;;;;13.69;100.00;97863.06;10507532;28;20048;-64
2021/10/29 15:59:11;;;;;;;16.05;12.82;;;;;;;13.41;100.00;97885.50;10511564;28;20060;-63
2021/10/29 16:20:18;;;;;;;21.13;17.00;;;;;;;12.29;100.00;97885.56;10530517;27;20044;-63
2021/10/29 16:25:30;;;;;;;20.90;18.10;;;;;;;12.12;100.00;97882.19;10509242;28;20182;-64
2021/10/29 16:30:34;;;;;;;23.02;19.35;;;;;;;11.86;100.00;97887.97;10507313;28;20043;-64
2021/10/29 16:35:39;;;;;;;25.35;20.25;;;;;;;11.70;100.00;97889.78;10509989;28;20043;-64
2021/10/29 16:40:43;;;;;;;26.25;21.67;;;;;;;11.46;100.00;97890.00;10507665;28;20497;-64
2021/10/29 16:45:47;;;;;;;33.65;27.08;;;;;;;11.19;100.00;97897.59;10510345;28;20470;-64
2021/10/29 16:50:51;;;;;;;30.85;22.80;;;;;;;10.92;100.00;97903.31;10508842;28;20028;-63
2021/10/29 16:55:57;;;;;;;30.77;23.90;;;;;;;10.74;100.00;97908.09;10509379;28;20105;-64
2021/10/29 17:01:01;;;;;;;34.45;24.10;;;;;;;10.61;100.00;97914.88;10537585;27;20052;-67
2021/10/29 17:06:05;;;;;;;30.35;23.60;;;;;;;10.51;100.00;97922.34;10515136;28;20063;-66
2021/10/29 17:11:12;;;;;;;31.77;24.67;;;;;;;10.41;100.00;97916.31;10515653;28;20417;-64
2021/10/29 17:16:16;;;;;;;32.58;25.40;;;;;;;10.24;100.00;97916.31;10512506;28;20093;-67
2021/10/29 17:21:19;;;;;;;30.88;24.38;;;;;;;10.12;100.00;97909.59;10513576;28;20076;-67
2021/10/29 17:26:23;;;;;;;35.80;25.17;;;;;;;10.00;100.00;97915.34;10513921;28;20040;-64
2021/10/29 17:31:27;;;;;;;32.15;24.83;;;;;;;9.94;100.00;97920.56;10513258;28;20051;-65
2021/10/29 17:36:31;;;;;;;34.85;24.98;;;;;;;9.89;100.00;97922.94;10511885;28;20051;-67
2021/10/29 17:41:38;;;;;;;34.80;25.38;;;;;;;9.81;100.00;97930.00;10526676;28;20048;-64
2021/10/29 17:46:43;;;;;;;33.72;24.85;;;;;;;9.69;100.00;97923.28;10511627;28;20032;-64
2021/10/29 17:51:48;;;;;;;31.90;26.00;;;;;;;9.59;100.00;97928.81;10511943;28;20055;-64
2021/10/29 17:56:54;;;;;;;33.60;25.55;;;;;;;9.55;100.00;97943.59;10515495;28;20043;-64
2021/10/29 18:01:59;;;;;;;33.05;24.48;;;;;;;9.52;100.00;97950.16;10513693;28;20486;-69
2021/10/29 18:07:06;;;;;;;32.28;25.60;;;;;;;9.46;100.00;97937.41;10512649;28;20173;-70
2021/10/29 18:12:11;;;;;;;32.53;25.33;;;;;;;9.41;100.00;97937.03;10515540;28;20499;-69
2021/10/29 18:17:15;;;;;;;34.47;26.40;;;;;;;9.37;100.00;97951.81;10513623;28;20463;-69
2021/10/29 18:22:18;;;;;;;33.00;25.60;;;;;;;9.29;100.00;97959.88;10513195;28;20123;-70
2021/10/29 18:27:24;;;;;;;34.17;26.50;;;;;;;9.29;100.00;97954.50;10515042;28;20070;-70
2021/10/29 18:32:27;;;;;;;36.78;27.35;;;;;;;9.24;100.00;97953.13;10516444;28;20462;-69
2021/10/29 18:37:30;;;;;;;39.05;27.52;;;;;;;9.20;100.00;97945.56;10513654;28;20056;-69
2021/10/29 18:42:35;;;;;;;34.28;27.50;;;;;;;9.15;100.00;97943.38;10514889;28;20505;-69
2021/10/29 18:47:38;;;;;;;35.38;26.88;;;;;;;9.07;100.00;97951.41;10513065;28;20446;-69
2021/10/29 18:52:41;;;;;;;35.30;27.63;;;;;;;9.08;100.00;97937.81;10511679;28;20036;-69
2021/10/29 18:57:46;;;;;;;37.78;28.02;;;;;;;9.01;100.00;97946.69;10510608;28;20614;-68
2021/10/29 19:02:49;;;;;;;37.15;27.02;;;;;;;8.97;100.00;97934.59;10508650;28;20055;-68
2021/10/29 19:07:54;;;;;;;34.00;27.30;;;;;;;8.89;100.00;97941.59;10512729;28;20473;-68
2021/10/29 19:13:03;;;;;;;40.72;28.35;;;;;;;8.84;100.00;97952.00;10509648;27;20136;-69
2021/10/29 19:18:06;;;;;;;38.08;28.20;;;;;;;8.82;100.00;97959.38;10514831;28;20667;-68
2021/10/29 19:23:09;;;;;;;37.45;28.00;;;;;;;8.77;100.00;97961.69;10512903;28;20082;-68
2021/10/29 19:28:14;;;;;;;36.03;27.50;;;;;;;8.71;100.00;97956.97;10511415;28;20377;-68
2021/10/29 19:33:18;;;;;;;37.75;28.40;;;;;;;8.64;100.00;97956.78;10510746;28;20139;-68
2021/10/29 19:38:23;;;;;;;39.10;28.48;;;;;;;8.66;100.00;97956.59;10510929;28;20048;-68
2021/10/29 19:43:28;;;;;;;38.83;28.27;;;;;;;8.58;100.00;97947.53;10510361;28;20482;-69
2021/10/29 19:48:31;;;;;;;38.20;28.95;;;;;;;8.58;100.00;97952.06;10511865;28;20477;-69
2021/10/29 19:53:35;;;;;;;38.13;28.75;;;;;;;8.53;100.00;97944.47;10512427;28;20075;-68
2021/10/29 19:58:39;;;;;;;37.83;28.70;;;;;;;8.46;100.00;97944.25;10512643;28;21108;-68
2021/10/29 20:03:42;;;;;;;38.00;28.20;;;;;;;8.46;100.00;97954.13;10513188;28;20119;-68
2021/10/29 20:08:46;;;;;;;39.65;29.23;;;;;;;8.41;100.00;97951.09;10507140;28;20048;-70
2021/10/29 20:13:50;;;;;;;41.28;28.50;;;;;;;8.42;100.00;97942.03;10512314;28;20494;-69
2021/10/29 20:18:53;;;;;;;38.13;29.58;;;;;;;8.42;100.00;97952.75;10510572;28;20342;-70
2021/10/29 20:23:58;;;;;;;40.35;29.38;;;;;;;8.39;100.00;97945.88;10511078;28;20043;-69
2021/10/29 20:29:03;;;;;;;36.75;28.10;;;;;;;8.39;100.00;97942.38;10509485;28;20131;-71
2021/10/29 20:34:07;;;;;;;41.03;28.98;;;;;;;8.36;100.00;97948.03;10537674;27;20058;-70
2021/10/29 20:39:11;;;;;;;41.70;30.50;;;;;;;8.34;100.00;97948.22;10513581;28;20205;-69
2021/10/29 20:44:15;;;;;;;40.17;29.67;;;;;;;8.30;100.00;97955.72;10519402;28;20089;-70
2021/10/29 20:49:19;;;;;;;38.65;28.98;;;;;;;8.30;100.00;97961.09;10518903;28;20753;-71
2021/10/29 20:54:22;;;;;;;41.60;29.05;;;;;;;8.25;100.00;97958.03;10519398;28;20151;-70
2021/10/29 20:59:27;;;;;;;39.63;29.77;;;;;;;8.20;100.00;97963.03;10521159;28;20040;-70
2021/10/29 21:04:33;;;;;;;39.83;29.17;;;;;;;8.16;100.00;97967.88;10518805;28;20134;-70
2021/10/29 21:09:36;;;;;;;40.33;30.05;;;;;;;8.14;100.00;97969.03;10518186;28;20644;-69
2021/10/29 21:14:41;;;;;;;39.80;29.55;;;;;;;8.11;100.00;97962.16;10515221;28;20048;-70
2021/10/29 21:19:47;;;;;;;41.42;30.33;;;;;;;8.11;100.00;97974.72;10516951;28;20052;-70
2021/10/29 21:24:50;;;;;;;39.03;29.48;;;;;;;8.06;100.00;97967.13;10516997;28;20048;-70
2021/10/29 21:29:54;;;;;;;40.33;29.88;;;;;;;8.04;100.00;97970.97;10519124;28;20515;-69
2021/10/29 21:34:58;;;;;;;42.30;29.60;;;;;;;8.00;100.00;97971.28;10518059;28;20047;-70
2021/10/29 21:40:01;;;;;;;39.38;28.75;;;;;;;7.98;100.00;97961.72;10518201;28;20063;-70
2021/10/29 21:45:08;;;;;;;41.60;30.10;;;;;;;7.98;100.00;97961.72;10516981;28;20832;-64
2021/10/29 21:50:11;;;;;;;38.88;28.80;;;;;;;7.88;100.00;97955.63;10514528;28;20044;-64
2021/10/29 21:55:14;;;;;;;40.03;29.70;;;;;;;7.83;100.00;97950.69;10514467;28;20050;-64
2021/10/29 22:00:43;;;;;;;43.72;30.58;;;;;;;7.79;100.00;97958.22;10517225;28;20844;-64
2021/10/29 22:05:48;;;;;;;42.95;30.27;;;;;;;7.77;100.00;97959.38;10515181;28;20123;-64
2021/10/29 22:10:52;;;;;;;40.80;30.90;;;;;;;7.74;100.00;97959.66;10515744;28;20430;-65
2021/10/29 22:15:57;;;;;;;41.40;30.05;;;;;;;7.68;100.00;97951.25;10515614;28;20058;-65
2021/10/29 22:21:00;;;;;;;43.22;30.42;;;;;;;7.64;100.00;97949.88;10511661;28;20044;-65
2021/10/29 22:26:05;;;;;;;41.15;29.52;;;;;;;7.59;100.00;97952.16;10514302;28;20131;-64
2021/10/29 22:31:10;;;;;;;41.33;30.15;;;;;;;7.51;100.00;97950.28;10512280;28;20401;-65
2021/10/29 22:36:13;;;;;;;38.22;28.40;;;;;;;7.48;100.00;97952.41;10510475;28;20047;-65
2021/10/29 22:41:17;;;;;;;42.45;31.05;;;;;;;7.42;100.00;97956.53;10509170;28;20054;-65
2021/10/29 22:46:22;;;;;;;39.15;29.02;;;;;;;7.37;100.00;97954.31;10512969;28;20508;-65
2021/10/29 22:51:27;;;;;;;38.55;28.63;;;;;;;7.31;100.00;97952.25;10512205;28;20508;-65
2021/10/29 22:56:31;;;;;;;40.75;30.20;;;;;;;7.27;100.00;97960.75;10513046;28;20054;-65
2021/10/29 23:01:35;;;;;;;43.30;30.42;;;;;;;7.23;100.00;97963.72;10510774;28;20182;-64
2021/10/29 23:06:39;;;;;;;40.28;30.33;;;;;;;7.20;100.00;97968.56;10508414;28;20050;-65
2021/10/29 23:11:42;;;;;;;41.38;30.27;;;;;;;7.19;100.00;97958.81;10512707;28;20050;-65
2021/10/29 23:16:46;;;;;;;42.15;31.08;;;;;;;7.16;100.00;97951.94;10511740;28;20058;-65
2021/10/29 23:21:49;;;;;;;43.80;30.70;;;;;;;7.14;100.00;97955.75;10512918;28;20910;-65
2021/10/29 23:26:53;;;;;;;43.58;32.00;;;;;;;7.13;100.00;97948.69;10513191;28;20044;-65
2021/10/29 23:31:58;;;;;;;43.72;31.88;;;;;;;7.09;100.00;97953.53;10512546;28;20723;-65
2021/10/29 23:37:01;;;;;;;42.05;30.08;;;;;;;7.07;100.00;97952.81;10508028;28;20044;-65
2021/10/29 23:42:04;;;;;;;44.22;31.30;;;;;;;7.01;100.00;97956.13;10511399;28;20036;-65
2021/10/29 23:47:09;;;;;;;48.55;31.63;;;;;;;6.98;100.00;97941.19;10511502;28;20052;-65
2021/10/29 23:52:12;;;;;;;47.13;31.95;;;;;;;6.93;100.00;97924.72;10511897;28;20046;-66
2021/10/29 23:57:15;;;;;;;47.33;31.08;;;;;;;6.84;100.00;97920.28;10512216;28;20058;-64
